Other Surface Observations
Issued by NWS Missoula, MT

Home | Current Version | Previous Version | Text Only | Print | Product List | Glossary On
Versions: 1 2 3 4 5 6 7 8 9 10 11 12 13 14 15 16 17 18 19 20 21 22 23 24 25 26 27 28 29 30 31 32 33 34 35 36 37 38 39 40 41 42 43 44 45 46 47 48 49 50
000
SXUS55 KMSO 201943
OSOMSO
MONTANA AWOS SUMMARY
NATIONAL WEATHER SERVICE MISSOULA MT
1243 PM MST SAT DEC 20 2014

Montana AWOS Reports

LAUREL      |K6S8 201935Z AUTO 18005KT 40SM 03/M07 A2987 RMK AO1 T00281071
ROUNDUP     |KRPX 201935Z AUTO 23013G18KT 40SM 08/M08 A2977 RMK AO1 T00831077




USA.gov is the U.S. government's official web portal to all federal, state and local government web resources and services.